createdAt,value
2018-10-16T00:01:00.178Z,101177.27
2018-10-16T00:03:28.937Z,101182.09
2018-10-16T00:05:57.532Z,101183.69
2018-10-16T00:08:26.045Z,101183.98
2018-10-16T00:10:54.566Z,101182.33
2018-10-16T00:13:23.966Z,101181.49
2018-10-16T00:15:53.047Z,101175.01
2018-10-16T00:18:21.552Z,101186.28
2018-10-16T00:20:50.057Z,101179.22
2018-10-16T00:23:18.821Z,101179.75
2018-10-16T00:25:47.341Z,101186.81
2018-10-16T00:28:15.824Z,101186.02
2018-10-16T00:30:44.386Z,101197.28
2018-10-16T00:33:13.011Z,101195.32
2018-10-16T00:35:41.565Z,101193.75
2018-10-16T00:38:10.078Z,101195.92
2018-10-16T00:40:38.574Z,101191.83
2018-10-16T00:43:07.123Z,101188.12
2018-10-16T00:45:35.639Z,101191.03
2018-10-16T00:48:05.216Z,101190.70
2018-10-16T00:50:33.731Z,101191.50
2018-10-16T00:53:04.036Z,101197.69
2018-10-16T00:55:32.924Z,101200.42
2018-10-16T00:58:02.828Z,101210.92
2018-10-16T01:00:31.462Z,101210.86
2018-10-16T01:03:00.059Z,101209.47
2018-10-16T01:05:28.627Z,101209.96
2018-10-16T01:07:57.135Z,101213.75
2018-10-16T01:10:25.688Z,101211.86
2018-10-16T01:12:54.542Z,101214.52
2018-10-16T01:15:23.058Z,101216.37
2018-10-16T01:17:52.061Z,101218.00
2018-10-16T01:20:20.665Z,101215.12
2018-10-16T01:22:49.214Z,101221.86
2018-10-16T01:25:17.718Z,101223.69
2018-10-16T01:27:46.267Z,101227.44
2018-10-16T01:30:14.813Z,101221.98
2018-10-16T01:32:43.405Z,101225.77
2018-10-16T01:35:12.579Z,101221.12
2018-10-16T01:37:41.585Z,101233.80
2018-10-16T01:40:11.235Z,101234.56
2018-10-16T01:42:39.832Z,101231.77
2018-10-16T01:45:08.957Z,101232.33
2018-10-16T01:47:37.485Z,101233.58
2018-10-16T01:50:09.914Z,101228.84
2018-10-16T01:52:38.623Z,101234.75
2018-10-16T01:55:07.265Z,101239.86
2018-10-16T01:57:35.809Z,101237.32
2018-10-16T02:00:05.757Z,101238.69
2018-10-16T02:02:34.388Z,101244.36
2018-10-16T02:05:05.575Z,101240.16
2018-10-16T02:07:34.099Z,101235.50
2018-10-16T02:10:03.404Z,101240.37
2018-10-16T02:12:31.911Z,101235.98
2018-10-16T02:15:00.426Z,101230.69
2018-10-16T02:17:28.949Z,101240.71
2018-10-16T02:19:57.442Z,101246.12
2018-10-16T02:22:25.965Z,101243.13
2018-10-16T02:24:54.482Z,101249.06
2018-10-16T02:27:23.047Z,101255.03
2018-10-16T02:29:51.537Z,101259.91
2018-10-16T02:32:20.061Z,101259.79
2018-10-16T02:34:48.588Z,101260.87
2018-10-16T02:37:17.182Z,101261.59
2018-10-16T02:39:45.742Z,101263.97
2018-10-16T02:42:14.361Z,101271.56
2018-10-16T02:44:42.844Z,101275.25
2018-10-16T02:47:11.398Z,101269.18
2018-10-16T02:49:40.003Z,101271.85
2018-10-16T02:52:08.525Z,101272.33
2018-10-16T02:54:37.164Z,101266.46
2018-10-16T02:57:06.113Z,101272.78
2018-10-16T02:59:34.604Z,101268.34
2018-10-16T03:02:04.712Z,101271.27
2018-10-16T03:04:33.235Z,101279.44
2018-10-16T03:07:05.432Z,101272.18
2018-10-16T03:09:33.946Z,101280.72
2018-10-16T03:12:03.259Z,101277.77
2018-10-16T03:14:31.781Z,101280.33
2018-10-16T03:17:00.403Z,101281.16
2018-10-16T03:19:28.957Z,101282.47
2018-10-16T03:21:57.491Z,101279.61
2018-10-16T03:24:26.012Z,101282.75
2018-10-16T03:26:55.100Z,101277.78
2018-10-16T03:29:23.736Z,101275.26
2018-10-16T03:31:52.278Z,101277.37
2018-10-16T03:34:20.955Z,101280.55
2018-10-16T03:36:49.449Z,101281.91
2018-10-16T03:39:18.393Z,101287.35
2018-10-16T03:41:46.910Z,101286.02
2018-10-16T03:44:15.452Z,101287.84
2018-10-16T03:46:43.973Z,101287.26
2018-10-16T03:49:12.530Z,101282.23
2018-10-16T03:51:41.668Z,101288.39
2018-10-16T03:54:10.763Z,101290.48
2018-10-16T03:56:39.247Z,101288.77
2018-10-16T03:59:07.774Z,101291.20
2018-10-16T04:01:36.595Z,101297.16
2018-10-16T04:04:05.499Z,101286.23
2018-10-16T04:06:34.016Z,101289.70
2018-10-16T04:09:05.301Z,101285.81
2018-10-16T04:11:33.839Z,101291.46
2018-10-16T04:14:03.838Z,101292.30
2018-10-16T04:16:32.350Z,101287.84
2018-10-16T04:19:00.892Z,101289.58
2018-10-16T04:21:34.533Z,101286.95
2018-10-16T04:24:04.553Z,101293.81
2018-10-16T04:26:33.189Z,101292.02
2018-10-16T04:29:03.262Z,101291.40
2018-10-16T04:31:31.799Z,101303.19
2018-10-16T04:34:00.297Z,101301.62
2018-10-16T04:36:28.983Z,101299.05
2018-10-16T04:38:57.501Z,101301.39
2018-10-16T04:41:26.275Z,101294.10
2018-10-16T04:43:55.818Z,101294.94
2018-10-16T04:46:24.404Z,101298.05
2018-10-16T04:48:52.998Z,101301.46
2018-10-16T04:51:21.665Z,101307.70
2018-10-16T04:53:50.149Z,101302.63
2018-10-16T04:56:18.656Z,101309.28
2018-10-16T04:58:47.723Z,101311.93
2018-10-16T05:01:16.233Z,101313.52
2018-10-16T05:03:44.731Z,101310.66
2018-10-16T05:06:13.270Z,101315.50
2018-10-16T05:08:43.056Z,101311.58
2018-10-16T05:11:11.643Z,101303.05
2018-10-16T05:13:40.428Z,101312.55
2018-10-16T05:16:08.997Z,101311.50
2018-10-16T05:18:37.526Z,101320.63
2018-10-16T05:21:06.618Z,101325.98
2018-10-16T05:23:35.138Z,101319.89
2018-10-16T05:26:06.055Z,101329.30
2018-10-16T05:28:34.632Z,101333.98
2018-10-16T05:31:04.673Z,101329.84
2018-10-16T05:33:33.145Z,101327.86
2018-10-16T05:36:02.813Z,101329.98
2018-10-16T05:38:31.377Z,101333.98
2018-10-16T05:40:59.905Z,101336.31
2018-10-16T05:43:28.432Z,101335.03
2018-10-16T05:45:57.465Z,101339.34
2018-10-16T05:48:26.064Z,101340.00
2018-10-16T05:50:54.555Z,101338.78
2018-10-16T05:53:23.106Z,101342.86
2018-10-16T05:56:02.748Z,101345.05
2018-10-16T05:58:31.397Z,101348.07
2018-10-16T06:00:59.955Z,101351.23
2018-10-16T06:03:28.788Z,101353.95
2018-10-16T06:05:57.313Z,101362.68
2018-10-16T06:08:25.838Z,101369.02
2018-10-16T06:10:54.443Z,101367.97
2018-10-16T06:13:22.915Z,101367.83
2018-10-16T06:15:51.525Z,101374.98
2018-10-16T06:18:20.017Z,101381.45
2018-10-16T06:20:48.535Z,101375.35
2018-10-16T06:23:17.074Z,101384.86
2018-10-16T06:25:46.209Z,101383.25
2018-10-16T06:28:22.232Z,101380.33
2018-10-16T06:30:50.777Z,101389.77
2018-10-16T06:33:22.093Z,101387.95
2018-10-16T06:35:50.601Z,101398.11
2018-10-16T06:38:19.122Z,101388.75
2018-10-16T06:40:47.715Z,101396.05
2018-10-16T06:43:16.252Z,101392.79
2018-10-16T06:45:44.977Z,101400.92
2018-10-16T06:48:13.883Z,101396.43
2018-10-16T06:50:42.629Z,101394.45
2018-10-16T06:53:11.305Z,101394.33
2018-10-16T06:55:39.787Z,101396.22
2018-10-16T06:58:08.786Z,101398.00
2018-10-16T07:00:37.876Z,101399.38
2018-10-16T07:03:06.735Z,101399.96
2018-10-16T07:05:36.147Z,101402.16
2018-10-16T07:08:05.255Z,101406.25
2018-10-16T07:10:33.802Z,101403.23
2018-10-16T07:13:03.688Z,101406.94
2018-10-16T07:15:32.573Z,101415.63
2018-10-16T07:18:03.082Z,101415.34
2018-10-16T07:20:31.569Z,101418.62
2018-10-16T07:23:00.069Z,101426.56
2018-10-16T07:25:28.613Z,101423.23
2018-10-16T07:27:57.212Z,101417.09
2018-10-16T07:30:25.800Z,101428.59
2018-10-16T07:32:54.322Z,101422.78
2018-10-16T07:35:22.865Z,101421.68
2018-10-16T07:37:51.499Z,101426.30
2018-10-16T07:40:19.970Z,101419.36
2018-10-16T07:42:48.456Z,101422.75
2018-10-16T07:45:16.963Z,101426.69
2018-10-16T07:47:45.497Z,101426.63
2018-10-16T07:50:14.030Z,101431.16
2018-10-16T07:52:42.557Z,101434.89
2018-10-16T07:55:12.774Z,101430.41
2018-10-16T07:57:41.531Z,101439.83
2018-10-16T08:00:13.069Z,101438.53
2018-10-16T08:02:42.713Z,101439.09
2018-10-16T08:05:12.112Z,101440.75
2018-10-16T08:07:41.274Z,101439.81
2018-10-16T08:10:11.418Z,101441.88
2018-10-16T08:12:40.262Z,101444.26
2018-10-16T08:15:09.498Z,101440.92
2018-10-16T08:17:38.466Z,101446.53
2018-10-16T08:20:07.254Z,101444.91
2018-10-16T08:22:36.033Z,101442.65
2018-10-16T08:25:05.214Z,101449.45
2018-10-16T08:27:33.724Z,101448.83
2018-10-16T08:30:04.231Z,101440.44
2018-10-16T08:32:32.761Z,101440.36
2018-10-16T08:35:02.455Z,101437.47
2018-10-16T08:39:47.427Z,101441.56
2018-10-16T08:43:30.746Z,101443.91
2018-10-16T08:46:10.521Z,101446.56
2018-10-16T08:48:50.280Z,101444.41
2018-10-16T08:51:31.855Z,101433.63
2018-10-16T08:54:00.427Z,101441.94
2018-10-16T08:56:29.037Z,101438.81
2018-10-16T08:58:57.855Z,101440.53
2018-10-16T09:01:26.409Z,101444.19
2018-10-16T09:03:54.953Z,101444.47
2018-10-16T09:06:23.466Z,101439.20
2018-10-16T09:08:52.000Z,101440.02
2018-10-16T09:11:20.570Z,101442.22
2018-10-16T09:13:49.202Z,101446.19
2018-10-16T09:16:17.716Z,101450.74
2018-10-16T09:18:47.974Z,101443.29
2018-10-16T09:21:16.516Z,101450.70
2018-10-16T09:23:45.157Z,101449.91
2018-10-16T09:26:13.751Z,101455.42
2018-10-16T09:28:42.364Z,101457.58
2018-10-16T09:31:10.960Z,101450.09
2018-10-16T09:33:39.540Z,101446.83
2018-10-16T09:36:08.393Z,101454.77
2018-10-16T09:38:37.216Z,101453.64
2018-10-16T09:41:05.919Z,101459.77
2018-10-16T09:43:34.881Z,101458.50
2018-10-16T09:46:04.480Z,101457.74
2018-10-16T09:48:33.019Z,101458.34
2018-10-16T09:51:03.190Z,101460.70
2018-10-16T09:53:31.728Z,101463.00
2018-10-16T09:56:00.242Z,101467.66
2018-10-16T09:58:29.108Z,101471.84
2018-10-16T10:01:02.976Z,101469.48
2018-10-16T10:03:31.692Z,101464.94
2018-10-16T10:06:00.178Z,101472.95
2018-10-16T10:08:28.696Z,101472.95
2018-10-16T10:10:57.256Z,101468.10
2018-10-16T10:13:25.957Z,101476.34
2018-10-16T10:15:54.495Z,101472.95
2018-10-16T10:18:23.025Z,101475.45
2018-10-16T10:20:51.639Z,101473.55
2018-10-16T10:23:20.169Z,101469.24
2018-10-16T10:25:48.747Z,101468.11
2018-10-16T10:28:17.357Z,101467.11
2018-10-16T10:30:45.890Z,101464.03
2018-10-16T10:33:14.467Z,101470.04
2018-10-16T10:35:45.963Z,101467.30
2018-10-16T10:38:14.502Z,101470.04
2018-10-16T10:40:43.581Z,101463.64
2018-10-16T10:43:12.119Z,101460.37
2018-10-16T10:45:40.634Z,101468.30
2018-10-16T10:48:09.566Z,101467.47
2018-10-16T10:50:38.322Z,101468.84
2018-10-16T10:53:06.602Z,101467.27
2018-10-16T10:55:39.308Z,101463.87
2018-10-16T10:58:07.992Z,101457.98
2018-10-16T11:00:36.563Z,101460.13
2018-10-16T11:03:05.594Z,101460.64
2018-10-16T11:05:34.585Z,101457.02
2018-10-16T11:08:05.853Z,101461.55
2018-10-16T11:10:34.428Z,101450.30
2018-10-16T11:13:05.741Z,101457.09
2018-10-16T11:15:34.263Z,101456.15
2018-10-16T11:18:04.569Z,101457.45
2018-10-16T11:20:33.093Z,101452.58
2018-10-16T11:23:02.762Z,101457.02
2018-10-16T11:25:31.346Z,101452.10
2018-10-16T11:27:59.854Z,101458.61
2018-10-16T11:30:28.446Z,101452.77
2018-10-16T11:32:56.990Z,101452.83
2018-10-16T11:35:25.525Z,101450.48
2018-10-16T11:37:54.018Z,101459.80
2018-10-16T11:40:22.576Z,101457.19
2018-10-16T11:42:51.125Z,101456.28
2018-10-16T11:45:19.700Z,101457.10
2018-10-16T11:47:48.185Z,101456.48
2018-10-16T11:50:16.881Z,101456.63
2018-10-16T11:52:45.447Z,101458.74
2018-10-16T11:55:14.010Z,101454.84
2018-10-16T11:57:42.627Z,101453.05
2018-10-16T12:00:15.686Z,101450.63
2018-10-16T12:02:44.455Z,101451.89
2018-10-16T12:05:13.050Z,101457.66
2018-10-16T12:07:42.063Z,101457.41
2018-10-16T12:10:10.661Z,101445.02
2018-10-16T12:12:39.225Z,101449.23
2018-10-16T12:15:08.286Z,101449.92
2018-10-16T12:17:41.834Z,101450.47
2018-10-16T12:20:14.991Z,101455.83
2018-10-16T12:22:43.504Z,101449.91
2018-10-16T12:25:12.067Z,101446.47
2018-10-16T12:27:40.631Z,101451.38
2018-10-16T12:30:09.525Z,101443.83
2018-10-16T12:32:38.420Z,101441.63
2018-10-16T12:35:07.086Z,101439.33
2018-10-16T12:37:35.730Z,101438.73
2018-10-16T12:40:06.168Z,101433.83
2018-10-16T12:42:34.725Z,101433.58
2018-10-16T12:45:05.054Z,101432.27
2018-10-16T12:47:33.705Z,101435.11
2018-10-16T12:50:04.267Z,101434.27
2018-10-16T12:52:32.850Z,101431.66
2018-10-16T12:55:02.723Z,101436.38
2018-10-16T12:57:31.361Z,101433.55
2018-10-16T12:59:59.949Z,101428.86
2018-10-16T13:02:28.499Z,101429.87
2018-10-16T13:04:57.355Z,101435.31
2018-10-16T13:07:41.197Z,101430.39
2018-10-16T13:10:13.379Z,101438.86
2018-10-16T13:12:42.523Z,101434.70
2018-10-16T13:15:12.451Z,101444.90
2018-10-16T13:17:41.776Z,101438.41
2018-10-16T13:20:12.387Z,101436.70
2018-10-16T13:22:41.406Z,101437.17
2018-10-16T13:25:11.538Z,101439.84
2018-10-16T13:27:40.078Z,101439.17
2018-10-16T13:30:11.421Z,101436.05
2018-10-16T13:32:40.077Z,101436.46
2018-10-16T13:35:11.550Z,101431.00
2018-10-16T13:37:39.989Z,101433.63
2018-10-16T13:40:09.639Z,101433.36
2018-10-16T13:42:38.187Z,101434.53
2018-10-16T13:45:07.897Z,101429.99
2018-10-16T13:47:36.418Z,101428.66
2018-10-16T13:50:06.199Z,101427.53
2018-10-16T13:52:34.722Z,101430.70
2018-10-16T13:55:05.029Z,101437.73
2018-10-16T13:57:33.568Z,101436.48
2018-10-16T14:00:03.787Z,101438.68
2018-10-16T14:02:32.346Z,101440.31
2018-10-16T14:05:01.021Z,101432.63
2018-10-16T14:07:29.490Z,101439.23
2018-10-16T14:09:58.035Z,101432.41
2018-10-16T14:12:26.583Z,101432.79
2018-10-16T14:14:55.137Z,101439.08
2018-10-16T14:17:23.697Z,101427.77
2018-10-16T14:19:52.278Z,101433.01
2018-10-16T14:22:20.833Z,101435.23
2018-10-16T14:24:49.444Z,101432.78
2018-10-16T14:27:18.008Z,101430.00
2018-10-16T14:29:46.554Z,101427.23
2018-10-16T14:32:15.241Z,101426.33
2018-10-16T14:34:43.935Z,101429.86
2018-10-16T14:37:12.458Z,101424.84
2018-10-16T14:39:40.989Z,101422.34
2018-10-16T14:42:09.770Z,101427.26
2018-10-16T14:44:38.287Z,101421.28
2018-10-16T14:47:06.848Z,101423.50
2018-10-16T14:49:36.334Z,101428.36
2018-10-16T14:52:05.565Z,101428.35
2018-10-16T14:54:34.110Z,101425.92
2018-10-16T14:57:04.091Z,101427.24
2018-10-16T14:59:32.573Z,101424.36
2018-10-16T15:02:03.612Z,101423.72
2018-10-16T15:04:32.081Z,101425.31
2018-10-16T15:07:00.597Z,101423.13
2018-10-16T15:09:29.240Z,101418.69
2018-10-16T15:11:57.830Z,101422.74
2018-10-16T15:14:26.829Z,101419.73
2018-10-16T15:16:55.347Z,101421.25
2018-10-16T15:19:24.003Z,101426.53
2018-10-16T15:21:52.547Z,101422.31
2018-10-16T15:24:21.125Z,101422.22
2018-10-16T15:26:49.775Z,101419.08
2018-10-16T15:29:18.384Z,101419.05
2018-10-16T15:31:46.919Z,101419.44
2018-10-16T15:34:15.474Z,101418.98
2018-10-16T15:36:44.145Z,101420.14
2018-10-16T15:39:13.473Z,101417.31
2018-10-16T15:41:41.985Z,101420.33
2018-10-16T15:44:11.248Z,101428.88
2018-10-16T15:46:40.096Z,101425.30
2018-10-16T15:49:08.781Z,101425.50
2018-10-16T15:51:37.324Z,101423.08
2018-10-16T15:54:06.271Z,101422.29
2018-10-16T15:56:34.805Z,101419.02
2018-10-16T15:59:04.598Z,101417.81
2018-10-16T16:01:33.098Z,101420.84
2018-10-16T16:04:03.168Z,101425.30
2018-10-16T16:06:31.651Z,101420.81
2018-10-16T16:09:00.291Z,101425.59
2018-10-16T16:11:28.864Z,101430.91
2018-10-16T16:13:57.558Z,101423.63
2018-10-16T16:16:26.435Z,101433.66
2018-10-16T16:18:54.936Z,101427.88
2018-10-16T16:21:23.890Z,101428.69
2018-10-16T16:23:52.430Z,101427.37
2018-10-16T16:26:20.985Z,101437.09
2018-10-16T16:28:50.159Z,101433.95
2018-10-16T16:31:18.856Z,101441.25
2018-10-16T16:33:47.409Z,101441.58
2018-10-16T16:36:15.952Z,101443.84
2018-10-16T16:38:44.534Z,101441.74
2018-10-16T16:41:13.102Z,101448.42
2018-10-16T16:43:42.510Z,101440.52
2018-10-16T16:46:11.087Z,101448.23
2018-10-16T16:48:39.612Z,101453.75
2018-10-16T16:51:08.163Z,101451.31
2018-10-16T16:53:36.722Z,101457.09
2018-10-16T16:56:06.055Z,101465.91
2018-10-16T16:58:35.117Z,101463.44
2018-10-16T17:01:05.994Z,101465.84
2018-10-16T17:03:34.864Z,101468.05
2018-10-16T17:06:04.639Z,101467.22
2018-10-16T17:08:33.166Z,101474.30
2018-10-16T17:11:04.727Z,101475.62
2018-10-16T17:13:33.248Z,101473.42
2018-10-16T17:16:02.725Z,101478.29
2018-10-16T17:18:31.337Z,101474.59
2018-10-16T17:20:59.797Z,101478.63
2018-10-16T17:23:28.397Z,101483.25
2018-10-16T17:25:57.251Z,101484.28
2018-10-16T17:28:25.494Z,101484.71
2018-10-16T17:30:54.088Z,101486.27
2018-10-16T17:33:22.651Z,101485.66
2018-10-16T17:35:51.165Z,101488.03
2018-10-16T17:38:19.685Z,101490.69
2018-10-16T17:40:48.288Z,101493.84
2018-10-16T17:43:16.795Z,101489.72
2018-10-16T17:45:45.579Z,101490.34
2018-10-16T17:48:14.164Z,101493.96
2018-10-16T17:50:43.169Z,101494.99
2018-10-16T17:53:11.705Z,101492.13
2018-10-16T17:55:40.186Z,101485.44
2018-10-16T17:58:08.740Z,101488.10
2018-10-16T18:00:39.423Z,101481.70
2018-10-16T18:03:07.994Z,101483.25
2018-10-16T18:05:36.553Z,101481.78
2018-10-16T18:08:05.233Z,101478.42
2018-10-16T18:10:33.818Z,101483.22
2018-10-16T18:13:05.000Z,101487.11
2018-10-16T18:15:35.216Z,101486.42
2018-10-16T18:18:04.648Z,101488.95
2018-10-16T18:20:33.231Z,101488.61
2018-10-16T18:23:03.150Z,101488.72
2018-10-16T18:25:31.724Z,101488.63
2018-10-16T18:28:00.290Z,101488.52
2018-10-16T18:30:28.826Z,101491.48
2018-10-16T18:32:57.428Z,101494.98
2018-10-16T18:35:26.047Z,101495.98
2018-10-16T18:37:55.179Z,101497.24
2018-10-16T18:40:23.886Z,101492.84
2018-10-16T18:42:53.293Z,101495.80
2018-10-16T18:45:21.855Z,101493.23
2018-10-16T18:47:52.140Z,101487.66
2018-10-16T18:50:20.654Z,101494.67
2018-10-16T18:52:49.232Z,101502.30
2018-10-16T18:55:17.808Z,101491.34
2018-10-16T18:57:46.498Z,101493.04
2018-10-16T19:00:18.171Z,101487.77
2018-10-16T19:02:47.465Z,101489.93
2018-10-16T19:05:16.138Z,101486.94
2018-10-16T19:07:44.779Z,101483.45
2018-10-16T19:10:13.470Z,101486.09
2018-10-16T19:12:42.366Z,101484.55
2018-10-16T19:15:12.597Z,101476.06
2018-10-16T19:17:41.828Z,101477.34
2018-10-16T19:20:11.887Z,101486.11
2018-10-16T19:22:40.567Z,101487.97
2018-10-16T19:25:10.133Z,101483.88
2018-10-16T19:27:38.880Z,101493.69
2018-10-16T19:30:08.686Z,101485.69
2018-10-16T19:32:37.325Z,101490.58
2018-10-16T19:35:06.207Z,101486.33
2018-10-16T19:37:34.891Z,101484.09
2018-10-16T19:40:04.912Z,101484.09
2018-10-16T19:42:33.494Z,101485.50
2018-10-16T19:45:03.953Z,101492.55
2018-10-16T19:47:32.616Z,101487.54
2018-10-16T19:50:02.724Z,101482.05
2018-10-16T19:52:31.284Z,101483.67
2018-10-16T19:54:59.874Z,101489.84
2018-10-16T19:57:28.481Z,101487.69
2018-10-16T19:59:57.083Z,101489.66
2018-10-16T20:02:25.632Z,101488.48
2018-10-16T20:04:54.230Z,101493.55
2018-10-16T20:07:22.895Z,101493.80
2018-10-16T20:09:51.425Z,101496.23
2018-10-16T20:12:19.988Z,101493.20
2018-10-16T20:14:48.553Z,101501.11
2018-10-16T20:17:17.114Z,101493.11
2018-10-16T20:19:45.698Z,101495.61
2018-10-16T20:22:14.218Z,101493.30
2018-10-16T20:24:42.835Z,101491.13
2018-10-16T20:27:11.310Z,101493.20
2018-10-16T20:29:39.834Z,101490.78
2018-10-16T20:32:08.069Z,101495.36
2018-10-16T20:34:36.664Z,101493.06
2018-10-16T20:37:05.288Z,101493.55
2018-10-16T20:39:33.796Z,101490.48
2018-10-16T20:42:04.487Z,101486.12
2018-10-16T20:44:33.042Z,101491.27
2018-10-16T20:47:02.897Z,101489.20
2018-10-16T20:49:31.456Z,101491.17
2018-10-16T20:52:01.128Z,101487.64
2018-10-16T20:54:29.635Z,101492.13
2018-10-16T20:56:58.154Z,101491.81
2018-10-16T20:59:26.790Z,101493.88
2018-10-16T21:01:55.428Z,101494.08
2018-10-16T21:04:23.960Z,101494.83
2018-10-16T21:06:52.639Z,101487.84
2018-10-16T21:09:21.152Z,101489.43
2018-10-16T21:11:49.692Z,101489.28
2018-10-16T21:14:18.196Z,101492.70
2018-10-16T21:16:46.775Z,101494.02
2018-10-16T21:19:15.364Z,101493.30
2018-10-16T21:21:43.836Z,101483.71
2018-10-16T21:24:12.416Z,101481.41
2018-10-16T21:26:41.036Z,101496.03
2018-10-16T21:29:09.621Z,101495.98
2018-10-16T21:31:38.107Z,101490.75
2018-10-16T21:34:06.704Z,101485.95
2018-10-16T21:36:35.203Z,101482.89
2018-10-16T21:39:06.637Z,101483.11
2018-10-16T21:41:35.499Z,101484.58
2018-10-16T21:44:09.264Z,101481.28
2018-10-16T21:46:37.820Z,101482.84
2018-10-16T21:49:06.827Z,101478.39
2018-10-16T21:51:35.299Z,101474.53
2018-10-16T21:54:06.077Z,101475.41
2018-10-16T21:56:34.606Z,101472.16
2018-10-16T21:59:04.945Z,101468.61
2018-10-16T22:01:38.542Z,101474.94
2018-10-16T22:04:07.123Z,101472.64
2018-10-16T22:06:35.630Z,101472.27
2018-10-16T22:09:09.949Z,101471.63
2018-10-16T22:11:38.478Z,101469.54
2018-10-16T22:14:07.517Z,101467.70
2018-10-16T22:16:36.087Z,101464.92
2018-10-16T22:19:06.044Z,101457.16
2018-10-16T22:21:34.601Z,101454.02
2018-10-16T22:24:04.485Z,101461.66
2018-10-16T22:26:33.289Z,101460.23
2018-10-16T22:29:03.286Z,101458.25
2018-10-16T22:31:31.769Z,101452.17
2018-10-16T22:34:00.294Z,101449.33
2018-10-16T22:36:28.848Z,101452.52
2018-10-16T22:38:57.353Z,101446.23
2018-10-16T22:41:26.132Z,101443.45
2018-10-16T22:43:54.808Z,101451.25
2018-10-16T22:46:23.328Z,101446.86
2018-10-16T22:48:51.941Z,101443.86
2018-10-16T22:51:20.477Z,101452.48
2018-10-16T22:53:48.947Z,101446.73
2018-10-16T22:56:17.491Z,101440.15
2018-10-16T22:58:46.157Z,101438.80
2018-10-16T23:01:14.712Z,101436.91
2018-10-16T23:03:43.278Z,101429.64
2018-10-16T23:06:11.880Z,101433.66
2018-10-16T23:08:40.466Z,101430.94
2018-10-16T23:11:09.456Z,101432.24
2018-10-16T23:13:37.973Z,101439.97
2018-10-16T23:16:06.491Z,101435.27
2018-10-16T23:18:35.272Z,101426.27
2018-10-16T23:21:05.429Z,101421.24
2018-10-16T23:23:33.918Z,101424.30
2018-10-16T23:26:04.661Z,101423.09
2018-10-16T23:28:33.198Z,101421.21
2018-10-16T23:31:02.807Z,101422.11
2018-10-16T23:33:31.378Z,101421.08
2018-10-16T23:35:59.937Z,101425.16
2018-10-16T23:38:28.474Z,101432.86
2018-10-16T23:40:56.975Z,101425.22
2018-10-16T23:43:25.503Z,101420.34
2018-10-16T23:45:54.063Z,101423.34
2018-10-16T23:48:22.587Z,101424.48
2018-10-16T23:50:51.189Z,101419.09
2018-10-16T23:53:19.716Z,101420.58
2018-10-16T23:55:48.232Z,101430.94
2018-10-16T23:58:16.836Z,101426.91
